Terminal Aerodrome Forecast
Issued by NWS

Current Version | Previous Version | Text Only | Print | Product List | Glossary On
Versions: 1 2 3 4 5 6 7 8 9 10 11 12 13 14 15 16 17
000
FTUS43 KGRB 292300
TAFAUW
TAF
KAUW 292327Z 3000/3024 28016G29KT P6SM BKN035
     FM300100 29012G17KT P6SM FEW050
     FM300500 29007KT P6SM SKC
     FM302100 20004KT P6SM SCT040 BKN090 PROB30 3021/3024 6SM -RA=

USA.gov is the U.S. government's official web portal to all federal, state and local government web resources and services.